sensor_id;sensor_type;location;lat;lon;timestamp;temperature;humidity
12839;DHT22;6486;51.034;5.262;2022-08-01T00:01:00;22.80;70.20
12839;DHT22;6486;51.034;5.262;2022-08-01T00:03:26;22.80;70.10
12839;DHT22;6486;51.034;5.262;2022-08-01T00:05:51;22.80;70.10
12839;DHT22;6486;51.034;5.262;2022-08-01T00:08:17;22.80;70.20
12839;DHT22;6486;51.034;5.262;2022-08-01T00:10:43;22.70;70.30
12839;DHT22;6486;51.034;5.262;2022-08-01T00:13:08;22.70;70.40
12839;DHT22;6486;51.034;5.262;2022-08-01T00:15:34;22.70;70.60
12839;DHT22;6486;51.034;5.262;2022-08-01T00:18:00;22.60;70.60
12839;DHT22;6486;51.034;5.262;2022-08-01T00:20:25;22.60;70.80
12839;DHT22;6486;51.034;5.262;2022-08-01T00:22:51;22.50;70.90
12839;DHT22;6486;51.034;5.262;2022-08-01T00:25:16;22.60;70.90
12839;DHT22;6486;51.034;5.262;2022-08-01T00:27:42;22.60;70.80
12839;DHT22;6486;51.034;5.262;2022-08-01T00:30:08;22.60;70.90
12839;DHT22;6486;51.034;5.262;2022-08-01T00:32:34;22.50;70.90
12839;DHT22;6486;51.034;5.262;2022-08-01T00:34:59;22.50;71.00
12839;DHT22;6486;51.034;5.262;2022-08-01T00:37:25;22.50;70.90
12839;DHT22;6486;51.034;5.262;2022-08-01T00:39:51;22.50;70.80
12839;DHT22;6486;51.034;5.262;2022-08-01T00:42:16;22.60;70.80
12839;DHT22;6486;51.034;5.262;2022-08-01T00:44:42;22.50;70.80
12839;DHT22;6486;51.034;5.262;2022-08-01T00:47:08;22.50;70.90
12839;DHT22;6486;51.034;5.262;2022-08-01T00:49:34;22.50;70.90
12839;DHT22;6486;51.034;5.262;2022-08-01T00:52:01;22.50;70.90
12839;DHT22;6486;51.034;5.262;2022-08-01T00:54:27;22.40;70.80
12839;DHT22;6486;51.034;5.262;2022-08-01T00:56:54;22.50;70.90
12839;DHT22;6486;51.034;5.262;2022-08-01T00:59:22;22.50;70.80
12839;DHT22;6486;51.034;5.262;2022-08-01T01:01:48;22.50;70.90
12839;DHT22;6486;51.034;5.262;2022-08-01T01:04:14;22.50;70.90
12839;DHT22;6486;51.034;5.262;2022-08-01T01:07:06;22.50;70.80
12839;DHT22;6486;51.034;5.262;2022-08-01T01:12:22;22.50;70.50
12839;DHT22;6486;51.034;5.262;2022-08-01T01:17:36;22.50;70.40
12839;DHT22;6486;51.034;5.262;2022-08-01T01:20:03;22.50;70.40
12839;DHT22;6486;51.034;5.262;2022-08-01T01:25:32;22.50;70.40
12839;DHT22;6486;51.034;5.262;2022-08-01T01:30:53;22.50;70.40
12839;DHT22;6486;51.034;5.262;2022-08-01T01:33:22;22.50;70.30
12839;DHT22;6486;51.034;5.262;2022-08-01T01:35:52;22.50;70.40
12839;DHT22;6486;51.034;5.262;2022-08-01T01:38:22;22.40;70.40
12839;DHT22;6486;51.034;5.262;2022-08-01T01:40:50;22.40;70.50
12839;DHT22;6486;51.034;5.262;2022-08-01T01:43:18;22.30;70.60
12839;DHT22;6486;51.034;5.262;2022-08-01T01:45:45;22.30;70.60
12839;DHT22;6486;51.034;5.262;2022-08-01T01:48:18;22.30;70.60
12839;DHT22;6486;51.034;5.262;2022-08-01T01:50:48;22.30;70.50
12839;DHT22;6486;51.034;5.262;2022-08-01T01:53:17;22.30;70.50
12839;DHT22;6486;51.034;5.262;2022-08-01T01:55:46;22.30;70.40
12839;DHT22;6486;51.034;5.262;2022-08-01T01:58:13;22.30;70.40
12839;DHT22;6486;51.034;5.262;2022-08-01T02:00:42;22.30;70.40
12839;DHT22;6486;51.034;5.262;2022-08-01T02:03:11;22.30;71.00
12839;DHT22;6486;51.034;5.262;2022-08-01T02:05:38;22.30;70.70
12839;DHT22;6486;51.034;5.262;2022-08-01T02:08:06;22.20;70.70
12839;DHT22;6486;51.034;5.262;2022-08-01T02:10:35;22.20;70.70
12839;DHT22;6486;51.034;5.262;2022-08-01T02:13:03;22.30;70.80
12839;DHT22;6486;51.034;5.262;2022-08-01T02:15:31;22.30;70.60
12839;DHT22;6486;51.034;5.262;2022-08-01T02:18:00;22.30;70.60
12839;DHT22;6486;51.034;5.262;2022-08-01T02:20:29;22.40;70.60
12839;DHT22;6486;51.034;5.262;2022-08-01T02:23:11;22.30;70.60
12839;DHT22;6486;51.034;5.262;2022-08-01T02:25:46;22.30;70.60
12839;DHT22;6486;51.034;5.262;2022-08-01T02:28:36;22.30;70.70
12839;DHT22;6486;51.034;5.262;2022-08-01T02:31:08;22.30;70.70
12839;DHT22;6486;51.034;5.262;2022-08-01T02:33:46;22.30;70.60
12839;DHT22;6486;51.034;5.262;2022-08-01T02:36:13;22.30;70.60
12839;DHT22;6486;51.034;5.262;2022-08-01T02:38:43;22.40;70.50
12839;DHT22;6486;51.034;5.262;2022-08-01T02:41:12;22.40;70.50
12839;DHT22;6486;51.034;5.262;2022-08-01T02:43:43;22.40;70.50
12839;DHT22;6486;51.034;5.262;2022-08-01T02:46:16;22.40;71.20
12839;DHT22;6486;51.034;5.262;2022-08-01T02:48:43;22.40;70.50
12839;DHT22;6486;51.034;5.262;2022-08-01T02:51:12;22.40;71.30
12839;DHT22;6486;51.034;5.262;2022-08-01T02:53:39;22.30;70.50
12839;DHT22;6486;51.034;5.262;2022-08-01T02:56:08;22.30;70.70
12839;DHT22;6486;51.034;5.262;2022-08-01T02:58:36;22.30;70.70
12839;DHT22;6486;51.034;5.262;2022-08-01T03:01:04;22.30;70.70
12839;DHT22;6486;51.034;5.262;2022-08-01T03:03:32;22.40;70.70
12839;DHT22;6486;51.034;5.262;2022-08-01T03:05:59;22.40;70.70
12839;DHT22;6486;51.034;5.262;2022-08-01T03:08:27;22.40;70.60
12839;DHT22;6486;51.034;5.262;2022-08-01T03:10:55;22.40;70.70
12839;DHT22;6486;51.034;5.262;2022-08-01T03:13:22;22.40;70.70
12839;DHT22;6486;51.034;5.262;2022-08-01T03:15:49;22.30;70.70
12839;DHT22;6486;51.034;5.262;2022-08-01T03:18:16;22.30;70.70
12839;DHT22;6486;51.034;5.262;2022-08-01T03:20:43;22.30;70.70
12839;DHT22;6486;51.034;5.262;2022-08-01T03:23:10;22.30;70.80
12839;DHT22;6486;51.034;5.262;2022-08-01T03:25:38;22.20;70.80
12839;DHT22;6486;51.034;5.262;2022-08-01T03:28:06;22.20;70.90
12839;DHT22;6486;51.034;5.262;2022-08-01T03:30:33;22.20;71.00
12839;DHT22;6486;51.034;5.262;2022-08-01T03:32:59;22.20;71.50
12839;DHT22;6486;51.034;5.262;2022-08-01T03:35:30;22.30;70.90
12839;DHT22;6486;51.034;5.262;2022-08-01T03:38:00;22.30;70.90
12839;DHT22;6486;51.034;5.262;2022-08-01T03:40:51;22.30;70.90
12839;DHT22;6486;51.034;5.262;2022-08-01T03:43:40;22.30;70.90
12839;DHT22;6486;51.034;5.262;2022-08-01T03:46:13;22.30;70.80
12839;DHT22;6486;51.034;5.262;2022-08-01T03:48:47;22.30;70.80
12839;DHT22;6486;51.034;5.262;2022-08-01T03:51:14;22.20;70.80
12839;DHT22;6486;51.034;5.262;2022-08-01T03:53:42;22.30;71.00
12839;DHT22;6486;51.034;5.262;2022-08-01T03:56:08;22.30;71.00
12839;DHT22;6486;51.034;5.262;2022-08-01T03:58:36;22.30;71.00
12839;DHT22;6486;51.034;5.262;2022-08-01T04:01:04;22.20;71.10
12839;DHT22;6486;51.034;5.262;2022-08-01T04:03:30;22.20;71.40
12839;DHT22;6486;51.034;5.262;2022-08-01T04:05:57;22.10;71.50
12839;DHT22;6486;51.034;5.262;2022-08-01T04:08:23;22.00;71.50
12839;DHT22;6486;51.034;5.262;2022-08-01T04:10:48;22.00;71.70
12839;DHT22;6486;51.034;5.262;2022-08-01T04:13:14;22.00;71.70
12839;DHT22;6486;51.034;5.262;2022-08-01T04:15:40;22.00;71.80
12839;DHT22;6486;51.034;5.262;2022-08-01T04:18:05;22.00;71.80
12839;DHT22;6486;51.034;5.262;2022-08-01T04:20:32;22.00;71.90
12839;DHT22;6486;51.034;5.262;2022-08-01T04:22:57;22.00;71.90
12839;DHT22;6486;51.034;5.262;2022-08-01T04:25:28;22.00;71.90
12839;DHT22;6486;51.034;5.262;2022-08-01T04:27:56;22.10;71.90
12839;DHT22;6486;51.034;5.262;2022-08-01T04:30:28;22.00;71.90
12839;DHT22;6486;51.034;5.262;2022-08-01T04:32:57;22.00;71.90
12839;DHT22;6486;51.034;5.262;2022-08-01T04:35:25;22.00;71.90
12839;DHT22;6486;51.034;5.262;2022-08-01T04:37:52;22.00;71.90
12839;DHT22;6486;51.034;5.262;2022-08-01T04:40:19;22.10;72.10
12839;DHT22;6486;51.034;5.262;2022-08-01T04:42:47;22.10;72.70
12839;DHT22;6486;51.034;5.262;2022-08-01T04:45:14;22.10;72.10
12839;DHT22;6486;51.034;5.262;2022-08-01T04:47:40;22.10;72.20
12839;DHT22;6486;51.034;5.262;2022-08-01T04:50:08;22.10;72.20
12839;DHT22;6486;51.034;5.262;2022-08-01T04:52:35;22.00;72.30
12839;DHT22;6486;51.034;5.262;2022-08-01T04:55:02;22.00;72.60
12839;DHT22;6486;51.034;5.262;2022-08-01T04:57:28;21.90;72.70
12839;DHT22;6486;51.034;5.262;2022-08-01T04:59:53;21.90;72.80
12839;DHT22;6486;51.034;5.262;2022-08-01T05:02:22;21.90;72.90
12839;DHT22;6486;51.034;5.262;2022-08-01T05:04:48;21.80;73.10
12839;DHT22;6486;51.034;5.262;2022-08-01T05:07:14;21.80;73.40
12839;DHT22;6486;51.034;5.262;2022-08-01T05:09:41;21.80;73.50
12839;DHT22;6486;51.034;5.262;2022-08-01T05:12:08;21.80;73.50
12839;DHT22;6486;51.034;5.262;2022-08-01T05:14:35;21.80;73.60
12839;DHT22;6486;51.034;5.262;2022-08-01T05:17:04;21.80;73.60
12839;DHT22;6486;51.034;5.262;2022-08-01T05:19:31;21.80;73.60
12839;DHT22;6486;51.034;5.262;2022-08-01T05:22:00;21.90;73.80
12839;DHT22;6486;51.034;5.262;2022-08-01T05:24:27;21.90;73.80
12839;DHT22;6486;51.034;5.262;2022-08-01T05:26:57;21.90;73.80
12839;DHT22;6486;51.034;5.262;2022-08-01T05:29:23;21.90;73.80
12839;DHT22;6486;51.034;5.262;2022-08-01T05:31:49;21.90;73.80
12839;DHT22;6486;51.034;5.262;2022-08-01T05:34:15;22.00;73.80
12839;DHT22;6486;51.034;5.262;2022-08-01T05:36:41;22.00;73.70
12839;DHT22;6486;51.034;5.262;2022-08-01T05:39:07;22.00;73.70
12839;DHT22;6486;51.034;5.262;2022-08-01T05:41:33;22.00;73.70
12839;DHT22;6486;51.034;5.262;2022-08-01T05:43:59;22.10;73.80
12839;DHT22;6486;51.034;5.262;2022-08-01T05:46:25;22.10;73.80
12839;DHT22;6486;51.034;5.262;2022-08-01T05:48:50;22.10;73.80
12839;DHT22;6486;51.034;5.262;2022-08-01T05:51:16;22.10;73.80
12839;DHT22;6486;51.034;5.262;2022-08-01T05:53:42;22.10;73.80
12839;DHT22;6486;51.034;5.262;2022-08-01T05:56:07;22.20;73.90
12839;DHT22;6486;51.034;5.262;2022-08-01T05:58:33;22.20;73.80
12839;DHT22;6486;51.034;5.262;2022-08-01T06:00:59;22.20;73.60
12839;DHT22;6486;51.034;5.262;2022-08-01T06:03:24;22.30;73.70
12839;DHT22;6486;51.034;5.262;2022-08-01T06:05:51;22.30;73.80
12839;DHT22;6486;51.034;5.262;2022-08-01T06:08:17;22.30;73.70
12839;DHT22;6486;51.034;5.262;2022-08-01T06:10:42;22.30;73.60
12839;DHT22;6486;51.034;5.262;2022-08-01T06:13:08;22.40;73.60
12839;DHT22;6486;51.034;5.262;2022-08-01T06:15:34;22.50;73.50
12839;DHT22;6486;51.034;5.262;2022-08-01T06:18:00;22.50;73.30
12839;DHT22;6486;51.034;5.262;2022-08-01T06:20:25;22.60;73.10
12839;DHT22;6486;51.034;5.262;2022-08-01T06:22:51;22.60;73.00
12839;DHT22;6486;51.034;5.262;2022-08-01T06:25:18;22.60;72.80
12839;DHT22;6486;51.034;5.262;2022-08-01T06:27:44;22.70;72.60
12839;DHT22;6486;51.034;5.262;2022-08-01T06:30:10;22.70;72.50
12839;DHT22;6486;51.034;5.262;2022-08-01T06:32:36;22.70;72.30
12839;DHT22;6486;51.034;5.262;2022-08-01T06:35:02;22.70;72.20
12839;DHT22;6486;51.034;5.262;2022-08-01T06:37:30;22.80;72.10
12839;DHT22;6486;51.034;5.262;2022-08-01T06:40:06;22.70;71.80
12839;DHT22;6486;51.034;5.262;2022-08-01T06:42:32;22.80;71.70
12839;DHT22;6486;51.034;5.262;2022-08-01T06:45:04;22.90;71.70
12839;DHT22;6486;51.034;5.262;2022-08-01T06:47:30;22.90;71.40
12839;DHT22;6486;51.034;5.262;2022-08-01T06:49:56;23.00;71.20
12839;DHT22;6486;51.034;5.262;2022-08-01T06:52:22;23.10;71.10
12839;DHT22;6486;51.034;5.262;2022-08-01T06:54:47;23.20;71.00
12839;DHT22;6486;51.034;5.262;2022-08-01T06:57:13;23.20;70.90
12839;DHT22;6486;51.034;5.262;2022-08-01T06:59:39;23.20;70.90
12839;DHT22;6486;51.034;5.262;2022-08-01T07:02:05;23.20;70.80
12839;DHT22;6486;51.034;5.262;2022-08-01T07:04:31;23.20;70.70
12839;DHT22;6486;51.034;5.262;2022-08-01T07:06:57;23.20;70.50
12839;DHT22;6486;51.034;5.262;2022-08-01T07:09:23;23.20;70.30
12839;DHT22;6486;51.034;5.262;2022-08-01T07:11:49;23.30;70.20
12839;DHT22;6486;51.034;5.262;2022-08-01T07:14:17;23.30;69.90
12839;DHT22;6486;51.034;5.262;2022-08-01T07:16:44;23.30;69.70
12839;DHT22;6486;51.034;5.262;2022-08-01T07:19:10;23.40;69.70
12839;DHT22;6486;51.034;5.262;2022-08-01T07:21:35;23.40;69.30
12839;DHT22;6486;51.034;5.262;2022-08-01T07:24:01;23.50;69.20
12839;DHT22;6486;51.034;5.262;2022-08-01T07:26:27;23.50;69.10
12839;DHT22;6486;51.034;5.262;2022-08-01T07:28:53;23.70;68.80
12839;DHT22;6486;51.034;5.262;2022-08-01T07:31:19;23.70;68.80
12839;DHT22;6486;51.034;5.262;2022-08-01T07:33:44;23.80;68.70
12839;DHT22;6486;51.034;5.262;2022-08-01T07:36:10;23.80;68.40
12839;DHT22;6486;51.034;5.262;2022-08-01T07:38:36;23.80;68.20
12839;DHT22;6486;51.034;5.262;2022-08-01T07:41:01;23.90;68.00
12839;DHT22;6486;51.034;5.262;2022-08-01T07:43:28;24.00;67.80
12839;DHT22;6486;51.034;5.262;2022-08-01T07:45:54;24.00;67.70
12839;DHT22;6486;51.034;5.262;2022-08-01T07:48:19;24.10;67.60
12839;DHT22;6486;51.034;5.262;2022-08-01T07:50:52;24.10;67.40
12839;DHT22;6486;51.034;5.262;2022-08-01T07:53:17;24.10;67.10
12839;DHT22;6486;51.034;5.262;2022-08-01T07:55:43;24.10;67.00
12839;DHT22;6486;51.034;5.262;2022-08-01T07:58:09;24.10;66.90
12839;DHT22;6486;51.034;5.262;2022-08-01T08:00:34;24.10;66.90
12839;DHT22;6486;51.034;5.262;2022-08-01T08:03:00;24.00;66.60
12839;DHT22;6486;51.034;5.262;2022-08-01T08:05:26;24.00;66.60
12839;DHT22;6486;51.034;5.262;2022-08-01T08:07:52;24.10;66.50
12839;DHT22;6486;51.034;5.262;2022-08-01T08:10:18;24.20;66.40
12839;DHT22;6486;51.034;5.262;2022-08-01T08:12:44;24.40;66.00
12839;DHT22;6486;51.034;5.262;2022-08-01T08:15:12;24.60;65.90
12839;DHT22;6486;51.034;5.262;2022-08-01T08:17:38;25.00;65.60
12839;DHT22;6486;51.034;5.262;2022-08-01T08:20:05;25.20;64.70
12839;DHT22;6486;51.034;5.262;2022-08-01T08:22:31;25.20;64.70
12839;DHT22;6486;51.034;5.262;2022-08-01T08:24:57;25.20;64.70
12839;DHT22;6486;51.034;5.262;2022-08-01T08:27:23;25.30;65.20
12839;DHT22;6486;51.034;5.262;2022-08-01T08:29:49;25.20;64.50
12839;DHT22;6486;51.034;5.262;2022-08-01T08:32:14;25.10;64.50
12839;DHT22;6486;51.034;5.262;2022-08-01T08:34:40;25.00;64.50
12839;DHT22;6486;51.034;5.262;2022-08-01T08:37:06;25.00;64.60
12839;DHT22;6486;51.034;5.262;2022-08-01T08:39:32;24.90;64.30
12839;DHT22;6486;51.034;5.262;2022-08-01T08:42:01;24.90;64.20
12839;DHT22;6486;51.034;5.262;2022-08-01T08:44:31;24.90;64.20
12839;DHT22;6486;51.034;5.262;2022-08-01T08:46:58;24.90;64.20
12839;DHT22;6486;51.034;5.262;2022-08-01T08:49:27;24.90;64.00
12839;DHT22;6486;51.034;5.262;2022-08-01T08:51:59;25.00;63.90
12839;DHT22;6486;51.034;5.262;2022-08-01T08:54:27;25.20;63.70
12839;DHT22;6486;51.034;5.262;2022-08-01T08:56:54;25.30;63.50
12839;DHT22;6486;51.034;5.262;2022-08-01T08:59:20;25.40;63.40
12839;DHT22;6486;51.034;5.262;2022-08-01T09:01:46;25.50;62.90
12839;DHT22;6486;51.034;5.262;2022-08-01T09:04:12;25.50;62.60
12839;DHT22;6486;51.034;5.262;2022-08-01T09:06:38;25.60;62.40
12839;DHT22;6486;51.034;5.262;2022-08-01T09:09:05;25.60;62.10
12839;DHT22;6486;51.034;5.262;2022-08-01T09:11:32;25.70;61.90
12839;DHT22;6486;51.034;5.262;2022-08-01T09:14:13;25.90;61.70
12839;DHT22;6486;51.034;5.262;2022-08-01T09:16:44;25.90;61.50
12839;DHT22;6486;51.034;5.262;2022-08-01T09:19:19;26.10;61.40
12839;DHT22;6486;51.034;5.262;2022-08-01T09:22:07;26.40;60.80
12839;DHT22;6486;51.034;5.262;2022-08-01T09:24:33;26.70;60.40
12839;DHT22;6486;51.034;5.262;2022-08-01T09:27:00;27.10;59.90
12839;DHT22;6486;51.034;5.262;2022-08-01T09:29:28;27.30;59.30
12839;DHT22;6486;51.034;5.262;2022-08-01T09:31:55;27.20;58.60
12839;DHT22;6486;51.034;5.262;2022-08-01T09:34:29;27.00;58.40
12839;DHT22;6486;51.034;5.262;2022-08-01T09:36:57;26.80;57.80
12839;DHT22;6486;51.034;5.262;2022-08-01T09:39:27;26.80;57.80
12839;DHT22;6486;51.034;5.262;2022-08-01T09:41:55;27.00;57.60
12839;DHT22;6486;51.034;5.262;2022-08-01T09:44:42;27.10;57.10
12839;DHT22;6486;51.034;5.262;2022-08-01T09:47:09;27.20;56.40
12839;DHT22;6486;51.034;5.262;2022-08-01T09:49:36;27.20;56.70
12839;DHT22;6486;51.034;5.262;2022-08-01T09:52:19;27.30;56.50
12839;DHT22;6486;51.034;5.262;2022-08-01T09:54:57;27.40;56.30
12839;DHT22;6486;51.034;5.262;2022-08-01T09:57:24;27.60;56.20
12839;DHT22;6486;51.034;5.262;2022-08-01T09:59:52;27.80;55.70
12839;DHT22;6486;51.034;5.262;2022-08-01T10:02:31;28.00;55.10
12839;DHT22;6486;51.034;5.262;2022-08-01T10:04:57;28.30;54.40
12839;DHT22;6486;51.034;5.262;2022-08-01T10:07:23;28.50;53.90
12839;DHT22;6486;51.034;5.262;2022-08-01T10:09:49;28.60;53.40
12839;DHT22;6486;51.034;5.262;2022-08-01T10:12:19;28.70;53.40
12839;DHT22;6486;51.034;5.262;2022-08-01T10:14:47;28.80;53.10
12839;DHT22;6486;51.034;5.262;2022-08-01T10:17:17;28.90;52.90
12839;DHT22;6486;51.034;5.262;2022-08-01T10:19:43;29.00;52.90
12839;DHT22;6486;51.034;5.262;2022-08-01T10:22:12;28.90;52.90
12839;DHT22;6486;51.034;5.262;2022-08-01T10:24:43;29.00;53.10
12839;DHT22;6486;51.034;5.262;2022-08-01T10:27:10;29.20;52.80
12839;DHT22;6486;51.034;5.262;2022-08-01T10:29:41;29.50;52.40
12839;DHT22;6486;51.034;5.262;2022-08-01T10:32:09;29.40;52.00
12839;DHT22;6486;51.034;5.262;2022-08-01T10:34:36;29.20;51.70
12839;DHT22;6486;51.034;5.262;2022-08-01T10:37:04;29.20;51.00
12839;DHT22;6486;51.034;5.262;2022-08-01T10:39:31;29.40;50.90
12839;DHT22;6486;51.034;5.262;2022-08-01T10:41:57;29.40;50.80
12839;DHT22;6486;51.034;5.262;2022-08-01T10:44:25;29.20;51.10
12839;DHT22;6486;51.034;5.262;2022-08-01T10:46:57;28.90;51.20
12839;DHT22;6486;51.034;5.262;2022-08-01T10:49:27;29.00;51.10
12839;DHT22;6486;51.034;5.262;2022-08-01T10:51:54;28.80;51.30
12839;DHT22;6486;51.034;5.262;2022-08-01T10:54:24;29.00;51.20
12839;DHT22;6486;51.034;5.262;2022-08-01T10:56:51;29.30;50.70
12839;DHT22;6486;51.034;5.262;2022-08-01T10:59:26;29.40;50.00
12839;DHT22;6486;51.034;5.262;2022-08-01T11:02:03;29.60;49.00
12839;DHT22;6486;51.034;5.262;2022-08-01T11:04:41;29.80;48.10
12839;DHT22;6486;51.034;5.262;2022-08-01T11:07:17;29.90;48.10
12839;DHT22;6486;51.034;5.262;2022-08-01T11:09:49;30.10;47.90
12839;DHT22;6486;51.034;5.262;2022-08-01T11:12:38;30.30;47.40
12839;DHT22;6486;51.034;5.262;2022-08-01T11:17:41;30.70;47.20
12839;DHT22;6486;51.034;5.262;2022-08-01T11:20:16;31.00;46.80
12839;DHT22;6486;51.034;5.262;2022-08-01T11:28:22;30.80;45.30
12839;DHT22;6486;51.034;5.262;2022-08-01T11:30:52;30.60;45.40
12839;DHT22;6486;51.034;5.262;2022-08-01T11:33:47;30.40;45.60
12839;DHT22;6486;51.034;5.262;2022-08-01T11:39:10;30.10;45.40
12839;DHT22;6486;51.034;5.262;2022-08-01T11:41:38;29.80;45.70
12839;DHT22;6486;51.034;5.262;2022-08-01T11:44:11;29.70;45.90
12839;DHT22;6486;51.034;5.262;2022-08-01T11:52:16;28.90;46.70
12839;DHT22;6486;51.034;5.262;2022-08-01T11:55:06;28.80;47.80
12839;DHT22;6486;51.034;5.262;2022-08-01T11:57:32;28.70;47.40
12839;DHT22;6486;51.034;5.262;2022-08-01T12:00:12;28.80;47.50
12839;DHT22;6486;51.034;5.262;2022-08-01T12:02:38;28.80;47.40
12839;DHT22;6486;51.034;5.262;2022-08-01T12:05:12;28.90;47.50
12839;DHT22;6486;51.034;5.262;2022-08-01T12:07:40;28.80;47.40
12839;DHT22;6486;51.034;5.262;2022-08-01T12:10:14;28.90;47.60
12839;DHT22;6486;51.034;5.262;2022-08-01T12:15:10;29.20;47.20
12839;DHT22;6486;51.034;5.262;2022-08-01T12:17:38;29.20;47.00
12839;DHT22;6486;51.034;5.262;2022-08-01T12:20:07;29.20;46.90
12839;DHT22;6486;51.034;5.262;2022-08-01T12:22:33;29.20;47.00
12839;DHT22;6486;51.034;5.262;2022-08-01T12:27:33;29.10;47.00
12839;DHT22;6486;51.034;5.262;2022-08-01T12:29:59;29.00;47.30
12839;DHT22;6486;51.034;5.262;2022-08-01T12:32:30;28.90;47.40
12839;DHT22;6486;51.034;5.262;2022-08-01T12:35:01;28.80;47.30
12839;DHT22;6486;51.034;5.262;2022-08-01T12:37:27;28.70;47.30
12839;DHT22;6486;51.034;5.262;2022-08-01T12:39:53;28.60;47.30
12839;DHT22;6486;51.034;5.262;2022-08-01T12:42:19;28.60;47.40
12839;DHT22;6486;51.034;5.262;2022-08-01T12:44:49;28.60;47.70
12839;DHT22;6486;51.034;5.262;2022-08-01T12:47:17;28.60;47.90
12839;DHT22;6486;51.034;5.262;2022-08-01T12:49:43;28.70;48.00
12839;DHT22;6486;51.034;5.262;2022-08-01T12:52:10;28.80;47.60
12839;DHT22;6486;51.034;5.262;2022-08-01T12:55:08;28.90;47.40
12839;DHT22;6486;51.034;5.262;2022-08-01T12:57:36;29.00;47.00
12839;DHT22;6486;51.034;5.262;2022-08-01T13:02:37;28.90;46.80
12839;DHT22;6486;51.034;5.262;2022-08-01T13:05:03;28.90;46.80
12839;DHT22;6486;51.034;5.262;2022-08-01T13:10:07;28.80;47.40
12839;DHT22;6486;51.034;5.262;2022-08-01T13:12:34;28.70;48.00
12839;DHT22;6486;51.034;5.262;2022-08-01T13:15:00;28.70;48.00
12839;DHT22;6486;51.034;5.262;2022-08-01T13:17:39;28.80;48.00
12839;DHT22;6486;51.034;5.262;2022-08-01T13:20:06;28.80;48.20
12839;DHT22;6486;51.034;5.262;2022-08-01T13:22:35;28.80;48.30
12839;DHT22;6486;51.034;5.262;2022-08-01T13:25:14;28.70;48.10
12839;DHT22;6486;51.034;5.262;2022-08-01T13:27:40;28.80;47.80
12839;DHT22;6486;51.034;5.262;2022-08-01T13:30:16;28.70;47.70
12839;DHT22;6486;51.034;5.262;2022-08-01T13:32:43;28.70;47.80
12839;DHT22;6486;51.034;5.262;2022-08-01T13:35:11;28.70;48.30
12839;DHT22;6486;51.034;5.262;2022-08-01T13:37:41;28.60;47.70
12839;DHT22;6486;51.034;5.262;2022-08-01T13:40:09;28.40;48.00
12839;DHT22;6486;51.034;5.262;2022-08-01T13:42:36;28.40;48.50
12839;DHT22;6486;51.034;5.262;2022-08-01T13:45:03;28.30;48.70
12839;DHT22;6486;51.034;5.262;2022-08-01T13:47:29;28.30;48.80
12839;DHT22;6486;51.034;5.262;2022-08-01T13:49:55;28.40;49.00
12839;DHT22;6486;51.034;5.262;2022-08-01T13:52:22;28.40;49.00
12839;DHT22;6486;51.034;5.262;2022-08-01T13:54:48;28.40;49.00
12839;DHT22;6486;51.034;5.262;2022-08-01T13:57:13;28.60;48.90
12839;DHT22;6486;51.034;5.262;2022-08-01T13:59:39;28.70;48.70
12839;DHT22;6486;51.034;5.262;2022-08-01T14:02:05;28.70;48.60
12839;DHT22;6486;51.034;5.262;2022-08-01T14:04:31;28.90;48.50
12839;DHT22;6486;51.034;5.262;2022-08-01T14:06:56;28.90;48.30
12839;DHT22;6486;51.034;5.262;2022-08-01T14:09:22;28.90;48.10
12839;DHT22;6486;51.034;5.262;2022-08-01T14:11:48;28.90;48.00
12839;DHT22;6486;51.034;5.262;2022-08-01T14:14:14;29.10;47.70
12839;DHT22;6486;51.034;5.262;2022-08-01T14:16:39;29.40;47.50
12839;DHT22;6486;51.034;5.262;2022-08-01T14:19:05;29.40;47.40
12839;DHT22;6486;51.034;5.262;2022-08-01T14:21:31;29.40;47.60
12839;DHT22;6486;51.034;5.262;2022-08-01T14:23:56;29.40;47.40
12839;DHT22;6486;51.034;5.262;2022-08-01T14:26:22;29.30;47.30
12839;DHT22;6486;51.034;5.262;2022-08-01T14:28:48;29.30;47.60
12839;DHT22;6486;51.034;5.262;2022-08-01T14:31:13;29.20;47.50
12839;DHT22;6486;51.034;5.262;2022-08-01T14:33:39;29.30;47.40
12839;DHT22;6486;51.034;5.262;2022-08-01T14:36:05;29.30;47.30
12839;DHT22;6486;51.034;5.262;2022-08-01T14:38:31;29.40;47.00
12839;DHT22;6486;51.034;5.262;2022-08-01T14:40:57;29.70;46.70
12839;DHT22;6486;51.034;5.262;2022-08-01T14:43:22;30.10;46.50
12839;DHT22;6486;51.034;5.262;2022-08-01T14:45:48;30.40;45.60
12839;DHT22;6486;51.034;5.262;2022-08-01T14:48:18;30.60;44.60
12839;DHT22;6486;51.034;5.262;2022-08-01T14:50:44;30.80;43.90
12839;DHT22;6486;51.034;5.262;2022-08-01T14:53:10;30.70;43.80
12839;DHT22;6486;51.034;5.262;2022-08-01T14:55:35;30.50;43.70
12839;DHT22;6486;51.034;5.262;2022-08-01T14:58:01;30.30;44.10
12839;DHT22;6486;51.034;5.262;2022-08-01T15:00:27;30.40;44.20
12839;DHT22;6486;51.034;5.262;2022-08-01T15:02:53;30.40;44.20
12839;DHT22;6486;51.034;5.262;2022-08-01T15:05:18;30.40;44.30
12839;DHT22;6486;51.034;5.262;2022-08-01T15:07:44;30.40;44.20
12839;DHT22;6486;51.034;5.262;2022-08-01T15:10:10;30.40;44.10
12839;DHT22;6486;51.034;5.262;2022-08-01T15:12:36;30.60;44.00
12839;DHT22;6486;51.034;5.262;2022-08-01T15:15:01;30.80;43.80
12839;DHT22;6486;51.034;5.262;2022-08-01T15:17:29;31.00;43.60
12839;DHT22;6486;51.034;5.262;2022-08-01T15:19:57;31.10;43.90
12839;DHT22;6486;51.034;5.262;2022-08-01T15:22:24;31.40;43.20
12839;DHT22;6486;51.034;5.262;2022-08-01T15:24:52;31.50;42.80
12839;DHT22;6486;51.034;5.262;2022-08-01T15:27:18;31.70;42.70
12839;DHT22;6486;51.034;5.262;2022-08-01T15:29:44;31.80;42.50
12839;DHT22;6486;51.034;5.262;2022-08-01T15:32:10;31.90;42.30
12839;DHT22;6486;51.034;5.262;2022-08-01T15:34:37;32.00;41.80
12839;DHT22;6486;51.034;5.262;2022-08-01T15:37:04;32.00;41.80
12839;DHT22;6486;51.034;5.262;2022-08-01T15:39:31;32.00;42.00
12839;DHT22;6486;51.034;5.262;2022-08-01T15:42:04;32.10;42.00
12839;DHT22;6486;51.034;5.262;2022-08-01T15:44:30;32.20;41.80
12839;DHT22;6486;51.034;5.262;2022-08-01T15:46:56;32.20;41.60
12839;DHT22;6486;51.034;5.262;2022-08-01T15:49:22;32.20;41.50
12839;DHT22;6486;51.034;5.262;2022-08-01T15:51:49;32.30;41.10
12839;DHT22;6486;51.034;5.262;2022-08-01T15:54:16;32.30;40.90
12839;DHT22;6486;51.034;5.262;2022-08-01T15:56:42;32.30;41.10
12839;DHT22;6486;51.034;5.262;2022-08-01T15:59:08;32.40;41.50
12839;DHT22;6486;51.034;5.262;2022-08-01T16:01:34;32.40;41.40
12839;DHT22;6486;51.034;5.262;2022-08-01T16:04:00;32.50;41.10
12839;DHT22;6486;51.034;5.262;2022-08-01T16:06:26;32.50;41.30
12839;DHT22;6486;51.034;5.262;2022-08-01T16:08:52;32.60;41.40
12839;DHT22;6486;51.034;5.262;2022-08-01T16:11:19;32.70;41.20
12839;DHT22;6486;51.034;5.262;2022-08-01T16:13:45;32.90;41.20
12839;DHT22;6486;51.034;5.262;2022-08-01T16:16:13;33.10;41.10
12839;DHT22;6486;51.034;5.262;2022-08-01T16:18:41;33.40;41.00
12839;DHT22;6486;51.034;5.262;2022-08-01T16:21:06;33.70;40.70
12839;DHT22;6486;51.034;5.262;2022-08-01T16:23:33;34.00;40.40
12839;DHT22;6486;51.034;5.262;2022-08-01T16:25:58;34.20;39.90
12839;DHT22;6486;51.034;5.262;2022-08-01T16:28:24;34.50;39.50